TGL9203 LXGB-LFKC
Flight info
| Callsign | TGL9203 |
|---|---|
| Flight time | 2h 9m |
| Altitude | 38000 |
| Route | RIXUR N851 ISTER DCT LUNOR DCT NOLVI DCT GARPU DCT LIBLO |
| Aircraft | A20N/M-SDE2E3FGHIRWXY/LB1 |
Departure
| Time | 2026-04-24 13:15 |
|---|---|
| Airport | Gibraltar Airport (LXGB) |
Arrival
| Time | 2026-04-24 15:25 |
|---|---|
| Airport | Calvi Sainte Catherine Airport (LFKC) |
| Time | Latitude | Longitude | Altitude | Speed | Heading |
|---|---|---|---|---|---|
| 2026-04-24 12:53 | 36.15304 | -5.34629 | 12 ft | 0 kts | 358° |
| 2026-04-24 13:05 | 36.15301 | -5.34629 | 13 ft | 2 kts | 358° |
| 2026-04-24 13:06 | 36.15286 | -5.34629 | 13 ft | 2 kts | 358° |
| 2026-04-24 13:06 | 36.15271 | -5.34628 | 13 ft | 2 kts | 358° |
| 2026-04-24 13:06 | 36.15256 | -5.34627 | 13 ft | 2 kts | 358° |
| 2026-04-24 13:06 | 36.15240 | -5.34626 | 13 ft | 2 kts | 359° |
| 2026-04-24 13:07 | 36.15228 | -5.34634 | 13 ft | 2 kts | 57° |
| 2026-04-24 13:07 | 36.15225 | -5.34644 | 13 ft | 0 kts | 86° |
| 2026-04-24 13:07 | 36.15225 | -5.34653 | 13 ft | 0 kts | 89° |
| 2026-04-24 13:07 | 36.15225 | -5.34654 | 13 ft | 0 kts | 89° |
| 2026-04-24 13:11 | 36.15225 | -5.34652 | 13 ft | 0 kts | 89° |
| 2026-04-24 13:11 | 36.15225 | -5.34638 | 12 ft | 4 kts | 89° |
| 2026-04-24 13:12 | 36.15226 | -5.34575 | 12 ft | 8 kts | 89° |
| 2026-04-24 13:12 | 36.15229 | -5.34492 | 13 ft | 10 kts | 88° |
| 2026-04-24 13:12 | 36.15233 | -5.34394 | 13 ft | 12 kts | 87° |
| 2026-04-24 13:12 | 36.15237 | -5.34281 | 12 ft | 10 kts | 89° |
| 2026-04-24 13:13 | 36.15184 | -5.34233 | 11 ft | 11 kts | 161° |
| 2026-04-24 13:13 | 36.15147 | -5.34196 | 11 ft | 7 kts | 114° |
| 2026-04-24 13:13 | 36.15152 | -5.34126 | 10 ft | 9 kts | 64° |
| 2026-04-24 13:13 | 36.15176 | -5.34045 | 10 ft | 9 kts | 88° |
| 2026-04-24 13:14 | 36.15148 | -5.34047 | 9 ft | 7 kts | 260° |
| 2026-04-24 13:14 | 36.15147 | -5.34056 | 9 ft | 0 kts | 266° |
| 2026-04-24 13:14 | 36.15144 | -5.34174 | 10 ft | 47 kts | 269° |
| 2026-04-24 13:14 | 36.15120 | -5.34894 | 13 ft | 118 kts | 268° |
| 2026-04-24 13:15 | 36.15066 | -5.36117 | 158 ft | 157 kts | 269° |
| 2026-04-24 13:15 | 36.14969 | -5.37454 | 793 ft | 157 kts | 269° |
| 2026-04-24 13:15 | 36.14873 | -5.38780 | 1513 ft | 155 kts | 268° |
| 2026-04-24 13:15 | 36.14784 | -5.40106 | 2098 ft | 163 kts | 268° |
| 2026-04-24 13:16 | 36.14687 | -5.41577 | 2588 ft | 179 kts | 264° |
| 2026-04-24 13:16 | 36.14163 | -5.43034 | 3059 ft | 198 kts | 227° |
| 2026-04-24 13:16 | 36.12934 | -5.43868 | 3522 ft | 214 kts | 189° |
| 2026-04-24 13:16 | 36.11395 | -5.43681 | 3941 ft | 236 kts | 160° |
| 2026-04-24 13:17 | 36.09819 | -5.42873 | 4547 ft | 253 kts | 148° |
| 2026-04-24 13:17 | 36.08606 | -5.41294 | 5155 ft | 264 kts | 112° |
| 2026-04-24 13:17 | 36.08390 | -5.39096 | 6051 ft | 263 kts | 77° |
| 2026-04-24 13:17 | 36.09233 | -5.37154 | 6980 ft | 263 kts | 43° |
| 2026-04-24 13:18 | 36.10666 | -5.35783 | 7909 ft | 266 kts | 37° |
| 2026-04-24 13:18 | 36.12104 | -5.34329 | 8791 ft | 270 kts | 42° |
| 2026-04-24 13:18 | 36.13448 | -5.32712 | 9642 ft | 274 kts | 46° |
| 2026-04-24 13:18 | 36.14725 | -5.30968 | 10497 ft | 278 kts | 49° |
| 2026-04-24 13:19 | 36.15971 | -5.29116 | 11183 ft | 288 kts | 51° |
| 2026-04-24 13:19 | 36.17255 | -5.27098 | 11628 ft | 305 kts | 52° |
| 2026-04-24 13:19 | 36.18570 | -5.24958 | 12231 ft | 317 kts | 53° |
| 2026-04-24 13:19 | 36.19873 | -5.22790 | 13037 ft | 320 kts | 53° |
| 2026-04-24 13:20 | 36.21191 | -5.20573 | 13843 ft | 324 kts | 53° |
| 2026-04-24 13:20 | 36.22526 | -5.18311 | 14608 ft | 325 kts | 53° |
| 2026-04-24 13:20 | 36.23859 | -5.16042 | 15294 ft | 330 kts | 53° |
| 2026-04-24 13:20 | 36.25206 | -5.13744 | 16006 ft | 335 kts | 54° |
| 2026-04-24 13:21 | 36.26570 | -5.11412 | 16728 ft | 338 kts | 54° |
| 2026-04-24 13:21 | 36.27966 | -5.09021 | 17441 ft | 342 kts | 54° |
| 2026-04-24 13:21 | 36.29357 | -5.06635 | 18124 ft | 345 kts | 54° |
| 2026-04-24 13:21 | 36.30757 | -5.04232 | 18755 ft | 349 kts | 54° |
| 2026-04-24 13:22 | 36.32182 | -5.01785 | 19395 ft | 351 kts | 54° |
| 2026-04-24 13:22 | 36.33608 | -4.99332 | 19918 ft | 355 kts | 54° |
| 2026-04-24 13:22 | 36.35071 | -4.96814 | 20501 ft | 360 kts | 54° |
| 2026-04-24 13:22 | 36.36533 | -4.94296 | 21132 ft | 362 kts | 54° |
| 2026-04-24 13:23 | 36.38007 | -4.91752 | 21720 ft | 365 kts | 54° |
| 2026-04-24 13:23 | 36.39473 | -4.89223 | 22262 ft | 368 kts | 54° |
| 2026-04-24 13:23 | 36.40980 | -4.86622 | 22804 ft | 372 kts | 54° |
| 2026-04-24 13:23 | 36.42494 | -4.84009 | 23356 ft | 376 kts | 54° |
| 2026-04-24 13:24 | 36.44023 | -4.81367 | 23900 ft | 379 kts | 54° |
| 2026-04-24 13:24 | 36.45562 | -4.78705 | 24425 ft | 382 kts | 54° |
| 2026-04-24 13:24 | 36.47092 | -4.76056 | 24928 ft | 385 kts | 54° |
| 2026-04-24 13:24 | 36.48678 | -4.73307 | 25430 ft | 388 kts | 54° |
| 2026-04-24 13:25 | 36.50238 | -4.70601 | 25907 ft | 391 kts | 54° |
| 2026-04-24 13:25 | 36.51838 | -4.67824 | 26379 ft | 394 kts | 54° |
| 2026-04-24 13:25 | 36.53417 | -4.65082 | 26828 ft | 397 kts | 54° |
| 2026-04-24 13:25 | 36.55034 | -4.62270 | 27270 ft | 400 kts | 54° |
| 2026-04-24 13:26 | 36.56659 | -4.59441 | 27701 ft | 402 kts | 54° |
| 2026-04-24 13:26 | 36.58305 | -4.56576 | 28122 ft | 405 kts | 54° |
| 2026-04-24 13:26 | 36.59946 | -4.53714 | 28527 ft | 408 kts | 54° |
| 2026-04-24 13:26 | 36.61587 | -4.50852 | 28920 ft | 410 kts | 54° |
| 2026-04-24 13:27 | 36.63247 | -4.47953 | 29305 ft | 413 kts | 54° |
| 2026-04-24 13:27 | 36.64916 | -4.45036 | 29683 ft | 415 kts | 54° |
| 2026-04-24 13:27 | 36.66620 | -4.42057 | 30052 ft | 418 kts | 54° |
| 2026-04-24 13:27 | 36.68294 | -4.39125 | 30402 ft | 420 kts | 54° |
| 2026-04-24 13:28 | 36.69993 | -4.36148 | 30747 ft | 423 kts | 54° |
| 2026-04-24 13:28 | 36.71676 | -4.33196 | 31146 ft | 423 kts | 54° |
| 2026-04-24 13:28 | 36.73372 | -4.30218 | 31602 ft | 421 kts | 54° |
| 2026-04-24 13:28 | 36.75072 | -4.27231 | 32049 ft | 420 kts | 54° |
| 2026-04-24 13:29 | 36.76762 | -4.24259 | 32473 ft | 419 kts | 54° |
| 2026-04-24 13:29 | 36.78434 | -4.21316 | 32875 ft | 419 kts | 54° |
| 2026-04-24 13:29 | 36.80107 | -4.18369 | 33266 ft | 418 kts | 54° |
| 2026-04-24 13:29 | 36.81796 | -4.15391 | 33646 ft | 417 kts | 54° |
| 2026-04-24 13:30 | 36.83476 | -4.12426 | 34014 ft | 416 kts | 54° |
| 2026-04-24 13:30 | 36.85141 | -4.09485 | 34364 ft | 416 kts | 54° |
| 2026-04-24 13:30 | 36.86787 | -4.06575 | 34674 ft | 414 kts | 54° |
| 2026-04-24 13:30 | 36.88446 | -4.03637 | 34971 ft | 415 kts | 54° |
| 2026-04-24 13:31 | 36.90124 | -4.00664 | 35285 ft | 414 kts | 54° |
| 2026-04-24 13:31 | 36.91765 | -3.97753 | 35592 ft | 413 kts | 54° |
| 2026-04-24 13:31 | 36.93417 | -3.94822 | 35892 ft | 413 kts | 54° |
| 2026-04-24 13:31 | 36.95079 | -3.91870 | 36176 ft | 412 kts | 54° |
| 2026-04-24 13:32 | 36.96728 | -3.88939 | 36447 ft | 412 kts | 54° |
| 2026-04-24 13:32 | 36.98354 | -3.86047 | 36691 ft | 412 kts | 54° |
| 2026-04-24 13:32 | 37.00005 | -3.83107 | 36891 ft | 413 kts | 54° |
| 2026-04-24 13:32 | 37.01658 | -3.80162 | 37068 ft | 414 kts | 54° |
| 2026-04-24 13:33 | 37.03315 | -3.77205 | 37243 ft | 415 kts | 54° |
| 2026-04-24 13:33 | 37.04967 | -3.74255 | 37414 ft | 416 kts | 54° |
| 2026-04-24 13:33 | 37.06625 | -3.71290 | 37570 ft | 416 kts | 54° |
| 2026-04-24 13:33 | 37.08299 | -3.68296 | 37713 ft | 418 kts | 54° |
| 2026-04-24 13:34 | 37.09935 | -3.65279 | 37867 ft | 419 kts | 57° |
| 2026-04-24 13:34 | 37.11428 | -3.62166 | 38021 ft | 420 kts | 60° |
| 2026-04-24 13:34 | 37.12794 | -3.58908 | 38167 ft | 421 kts | 63° |
| 2026-04-24 13:34 | 37.14086 | -3.55654 | 38305 ft | 422 kts | 63° |
| 2026-04-24 13:35 | 37.16687 | -3.49050 | 38330 ft | 423 kts | 63° |
| 2026-04-24 13:35 | 37.19283 | -3.42460 | 38331 ft | 423 kts | 63° |
| 2026-04-24 13:36 | 37.21886 | -3.35851 | 38334 ft | 424 kts | 63° |
| 2026-04-24 13:36 | 37.24492 | -3.29222 | 38338 ft | 423 kts | 64° |
| 2026-04-24 13:37 | 37.27086 | -3.22616 | 38343 ft | 423 kts | 63° |
| 2026-04-24 13:37 | 37.29678 | -3.15999 | 38346 ft | 423 kts | 64° |
| 2026-04-24 13:38 | 37.32270 | -3.09361 | 38348 ft | 423 kts | 64° |
| 2026-04-24 13:38 | 37.34846 | -3.02751 | 38351 ft | 423 kts | 64° |
| 2026-04-24 13:39 | 37.37435 | -2.96093 | 38352 ft | 423 kts | 64° |
| 2026-04-24 13:39 | 37.39996 | -2.89490 | 38350 ft | 423 kts | 64° |
| 2026-04-24 13:40 | 37.42577 | -2.82829 | 38350 ft | 423 kts | 63° |
| 2026-04-24 13:40 | 37.45141 | -2.76199 | 38352 ft | 423 kts | 63° |
| 2026-04-24 13:41 | 37.47700 | -2.69567 | 38355 ft | 423 kts | 63° |
| 2026-04-24 13:41 | 37.50263 | -2.62904 | 38355 ft | 423 kts | 63° |
| 2026-04-24 13:42 | 37.52815 | -2.56257 | 38350 ft | 423 kts | 64° |
| 2026-04-24 13:42 | 37.55368 | -2.49592 | 38345 ft | 423 kts | 64° |
| 2026-04-24 13:43 | 37.57928 | -2.42892 | 38345 ft | 423 kts | 64° |
| 2026-04-24 13:43 | 37.60463 | -2.36242 | 38349 ft | 423 kts | 64° |
| 2026-04-24 13:44 | 37.63023 | -2.29516 | 38351 ft | 423 kts | 64° |
| 2026-04-24 13:44 | 37.65577 | -2.22807 | 38352 ft | 423 kts | 64° |
| 2026-04-24 13:45 | 37.68099 | -2.16165 | 38352 ft | 423 kts | 64° |
| 2026-04-24 13:45 | 37.70636 | -2.09468 | 38352 ft | 423 kts | 64° |
| 2026-04-24 13:46 | 37.73162 | -2.02782 | 38352 ft | 423 kts | 64° |
| 2026-04-24 13:46 | 37.75684 | -1.96097 | 38354 ft | 423 kts | 64° |
| 2026-04-24 13:47 | 37.78214 | -1.89371 | 38361 ft | 423 kts | 64° |
| 2026-04-24 13:47 | 37.80735 | -1.82653 | 38369 ft | 423 kts | 64° |
| 2026-04-24 13:48 | 37.83238 | -1.75966 | 38376 ft | 423 kts | 64° |
| 2026-04-24 13:48 | 37.85755 | -1.69227 | 38382 ft | 423 kts | 64° |
| 2026-04-24 13:49 | 37.88254 | -1.62519 | 38386 ft | 423 kts | 64° |
| 2026-04-24 13:49 | 37.90748 | -1.55809 | 38391 ft | 423 kts | 64° |
| 2026-04-24 13:50 | 37.93265 | -1.49038 | 38396 ft | 423 kts | 64° |
| 2026-04-24 13:50 | 37.95746 | -1.42343 | 38400 ft | 423 kts | 64° |
| 2026-04-24 13:51 | 37.98238 | -1.35597 | 38403 ft | 423 kts | 64° |
| 2026-04-24 13:51 | 38.00729 | -1.28837 | 38408 ft | 423 kts | 64° |
| 2026-04-24 13:52 | 38.03207 | -1.22096 | 38410 ft | 423 kts | 64° |
| 2026-04-24 13:52 | 38.05682 | -1.15348 | 38407 ft | 424 kts | 64° |
| 2026-04-24 13:53 | 38.08168 | -1.08553 | 38406 ft | 424 kts | 64° |
| 2026-04-24 13:53 | 38.10643 | -1.01775 | 38407 ft | 424 kts | 65° |
| 2026-04-24 13:54 | 38.13116 | -0.94987 | 38409 ft | 424 kts | 65° |
| 2026-04-24 13:54 | 38.15596 | -0.88162 | 38410 ft | 424 kts | 65° |
| 2026-04-24 13:55 | 38.18048 | -0.81397 | 38411 ft | 424 kts | 65° |
| 2026-04-24 13:55 | 38.20522 | -0.74559 | 38414 ft | 423 kts | 65° |
| 2026-04-24 13:56 | 38.22976 | -0.67756 | 38416 ft | 424 kts | 65° |
| 2026-04-24 13:56 | 38.25432 | -0.60932 | 38417 ft | 424 kts | 65° |
| 2026-04-24 13:57 | 38.27783 | -0.54112 | 38417 ft | 424 kts | 67° |
| 2026-04-24 13:57 | 38.30012 | -0.47145 | 38417 ft | 424 kts | 67° |
| 2026-04-24 13:58 | 38.32229 | -0.40183 | 38416 ft | 424 kts | 67° |
| 2026-04-24 13:58 | 38.34434 | -0.33252 | 38416 ft | 424 kts | 68° |
| 2026-04-24 13:59 | 38.36654 | -0.26304 | 38418 ft | 424 kts | 67° |
| 2026-04-24 13:59 | 38.38961 | -0.19409 | 38420 ft | 423 kts | 66° |
| 2026-04-24 14:00 | 38.41262 | -0.12521 | 38420 ft | 424 kts | 66° |
| 2026-04-24 14:00 | 38.43544 | -0.05641 | 38420 ft | 424 kts | 66° |
| 2026-04-24 14:01 | 38.45822 | 0.01279 | 38420 ft | 424 kts | 67° |
| 2026-04-24 14:01 | 38.48055 | 0.08220 | 38421 ft | 424 kts | 67° |
| 2026-04-24 14:02 | 38.50292 | 0.15205 | 38420 ft | 424 kts | 67° |
| 2026-04-24 14:02 | 38.52505 | 0.22121 | 38420 ft | 423 kts | 67° |
| 2026-04-24 14:03 | 38.54722 | 0.29065 | 38420 ft | 424 kts | 67° |
| 2026-04-24 14:03 | 38.56949 | 0.36056 | 38420 ft | 424 kts | 67° |
| 2026-04-24 14:04 | 38.59150 | 0.42990 | 38420 ft | 424 kts | 67° |
| 2026-04-24 14:04 | 38.61364 | 0.49975 | 38420 ft | 423 kts | 67° |
| 2026-04-24 14:05 | 38.63551 | 0.56889 | 38420 ft | 423 kts | 67° |
| 2026-04-24 14:05 | 38.65747 | 0.63860 | 38420 ft | 423 kts | 67° |
| 2026-04-24 14:06 | 38.67947 | 0.70855 | 38420 ft | 423 kts | 68° |
| 2026-04-24 14:06 | 38.70124 | 0.77781 | 38422 ft | 426 kts | 68° |
| 2026-04-24 14:07 | 38.72346 | 0.84874 | 38420 ft | 433 kts | 68° |
| 2026-04-24 14:07 | 38.74564 | 0.91974 | 38419 ft | 427 kts | 68° |
| 2026-04-24 14:08 | 38.76755 | 0.99012 | 38420 ft | 427 kts | 68° |
| 2026-04-24 14:08 | 38.78959 | 1.06107 | 38420 ft | 428 kts | 68° |
| 2026-04-24 14:09 | 38.81138 | 1.13142 | 38420 ft | 428 kts | 68° |
| 2026-04-24 14:09 | 38.83334 | 1.20249 | 38420 ft | 429 kts | 68° |
| 2026-04-24 14:10 | 38.85518 | 1.27337 | 38420 ft | 429 kts | 68° |
| 2026-04-24 14:10 | 38.87693 | 1.34416 | 38420 ft | 429 kts | 68° |
| 2026-04-24 14:11 | 38.89883 | 1.41561 | 38419 ft | 429 kts | 68° |
| 2026-04-24 14:12 | 38.93107 | 1.52222 | 38419 ft | 429 kts | 68° |
| 2026-04-24 14:12 | 38.95205 | 1.59344 | 38419 ft | 429 kts | 68° |
| 2026-04-24 14:13 | 38.97315 | 1.66521 | 38420 ft | 430 kts | 69° |
| 2026-04-24 14:13 | 38.99416 | 1.73677 | 38420 ft | 430 kts | 69° |
| 2026-04-24 14:14 | 39.01519 | 1.80858 | 38420 ft | 430 kts | 69° |
| 2026-04-24 14:14 | 39.04663 | 1.91627 | 38420 ft | 431 kts | 69° |
| 2026-04-24 14:15 | 39.06769 | 1.98866 | 38420 ft | 431 kts | 69° |
| 2026-04-24 14:15 | 39.08847 | 2.06029 | 38420 ft | 431 kts | 69° |
| 2026-04-24 14:16 | 39.10898 | 2.13110 | 38419 ft | 417 kts | 69° |
| 2026-04-24 14:17 | 39.13915 | 2.23578 | 38420 ft | 417 kts | 69° |
| 2026-04-24 14:17 | 39.16933 | 2.34083 | 38419 ft | 420 kts | 69° |
| 2026-04-24 14:18 | 39.18946 | 2.41108 | 38420 ft | 419 kts | 69° |
| 2026-04-24 14:18 | 39.20957 | 2.48148 | 38420 ft | 419 kts | 69° |
| 2026-04-24 14:19 | 39.22969 | 2.55220 | 38420 ft | 419 kts | 69° |
| 2026-04-24 14:19 | 39.24961 | 2.62235 | 38420 ft | 418 kts | 69° |
| 2026-04-24 14:20 | 39.26955 | 2.69281 | 38422 ft | 422 kts | 70° |
| 2026-04-24 14:20 | 39.28983 | 2.76459 | 38421 ft | 431 kts | 70° |
| 2026-04-24 14:21 | 39.31047 | 2.83772 | 38420 ft | 440 kts | 70° |
| 2026-04-24 14:21 | 39.33155 | 2.91267 | 38419 ft | 447 kts | 70° |
| 2026-04-24 14:22 | 39.35274 | 2.98827 | 38416 ft | 453 kts | 70° |
| 2026-04-24 14:23 | 39.38503 | 3.10392 | 38414 ft | 460 kts | 70° |
| 2026-04-24 14:23 | 39.40635 | 3.18068 | 38413 ft | 454 kts | 70° |
| 2026-04-24 14:24 | 39.42963 | 3.25580 | 38414 ft | 447 kts | 64° |
| 2026-04-24 14:24 | 39.45890 | 3.32566 | 38416 ft | 439 kts | 59° |
| 2026-04-24 14:25 | 39.48994 | 3.39289 | 38416 ft | 434 kts | 58° |
| 2026-04-24 14:25 | 39.52066 | 3.45950 | 38418 ft | 430 kts | 58° |
| 2026-04-24 14:26 | 39.55097 | 3.52553 | 38420 ft | 428 kts | 59° |
| 2026-04-24 14:26 | 39.58140 | 3.59203 | 38420 ft | 430 kts | 59° |
| 2026-04-24 14:27 | 39.61190 | 3.65885 | 38420 ft | 433 kts | 59° |
| 2026-04-24 14:27 | 39.64248 | 3.72602 | 38420 ft | 435 kts | 59° |
| 2026-04-24 14:28 | 39.67314 | 3.79349 | 38420 ft | 437 kts | 59° |
| 2026-04-24 14:28 | 39.70385 | 3.86122 | 38420 ft | 436 kts | 59° |
| 2026-04-24 14:29 | 39.73455 | 3.92908 | 38420 ft | 438 kts | 59° |
| 2026-04-24 14:29 | 39.76541 | 3.99746 | 38420 ft | 439 kts | 59° |
| 2026-04-24 14:30 | 39.79100 | 4.05427 | 38419 ft | 439 kts | 59° |
| 2026-04-24 14:30 | 39.82677 | 4.13390 | 38419 ft | 437 kts | 59° |
| 2026-04-24 14:31 | 39.85718 | 4.20174 | 38419 ft | 435 kts | 59° |
| 2026-04-24 14:31 | 39.88753 | 4.26938 | 38420 ft | 434 kts | 59° |
| 2026-04-24 14:32 | 39.91803 | 4.33735 | 38420 ft | 433 kts | 59° |
| 2026-04-24 14:32 | 39.94831 | 4.40501 | 38421 ft | 432 kts | 59° |
| 2026-04-24 14:33 | 39.97841 | 4.47245 | 38421 ft | 431 kts | 59° |
| 2026-04-24 14:33 | 40.00831 | 4.53960 | 38421 ft | 431 kts | 59° |
| 2026-04-24 14:34 | 40.03841 | 4.60735 | 38421 ft | 430 kts | 59° |
| 2026-04-24 14:34 | 40.06814 | 4.67442 | 38421 ft | 430 kts | 60° |
| 2026-04-24 14:35 | 40.09810 | 4.74194 | 38421 ft | 429 kts | 60° |
| 2026-04-24 14:35 | 40.12786 | 4.80915 | 38421 ft | 428 kts | 60° |
| 2026-04-24 14:36 | 40.15744 | 4.87611 | 38420 ft | 425 kts | 60° |
| 2026-04-24 14:36 | 40.18702 | 4.94318 | 38421 ft | 430 kts | 60° |
| 2026-04-24 14:37 | 40.21698 | 5.01130 | 38420 ft | 434 kts | 60° |
| 2026-04-24 14:37 | 40.24702 | 5.07977 | 38420 ft | 438 kts | 60° |
| 2026-04-24 14:38 | 40.27737 | 5.14915 | 38420 ft | 441 kts | 60° |
| 2026-04-24 14:38 | 40.30770 | 5.21865 | 38420 ft | 444 kts | 60° |
| 2026-04-24 14:39 | 40.33837 | 5.28908 | 38420 ft | 446 kts | 60° |
| 2026-04-24 14:39 | 40.36918 | 5.35969 | 38419 ft | 447 kts | 58° |
| 2026-04-24 14:40 | 40.40412 | 5.42696 | 38420 ft | 448 kts | 51° |
| 2026-04-24 14:40 | 40.44322 | 5.49024 | 38421 ft | 450 kts | 50° |
| 2026-04-24 14:41 | 40.48298 | 5.55382 | 38420 ft | 451 kts | 50° |
| 2026-04-24 14:41 | 40.52253 | 5.61735 | 38420 ft | 452 kts | 50° |
| 2026-04-24 14:42 | 40.56224 | 5.68136 | 38420 ft | 453 kts | 51° |
| 2026-04-24 14:42 | 40.60204 | 5.74567 | 38420 ft | 453 kts | 51° |
| 2026-04-24 14:43 | 40.64150 | 5.80955 | 38420 ft | 451 kts | 51° |
| 2026-04-24 14:43 | 40.68097 | 5.87364 | 38420 ft | 449 kts | 51° |
| 2026-04-24 14:44 | 40.71994 | 5.93704 | 38420 ft | 447 kts | 51° |
| 2026-04-24 14:44 | 40.76118 | 5.99840 | 38420 ft | 446 kts | 47° |
| 2026-04-24 14:45 | 40.80308 | 6.05790 | 38420 ft | 445 kts | 47° |
| 2026-04-24 14:45 | 40.84505 | 6.11762 | 38420 ft | 444 kts | 47° |
| 2026-04-24 14:46 | 40.88705 | 6.17761 | 38420 ft | 443 kts | 47° |
| 2026-04-24 14:46 | 40.92869 | 6.23725 | 38420 ft | 440 kts | 47° |
| 2026-04-24 14:47 | 40.96996 | 6.29650 | 38420 ft | 438 kts | 47° |
| 2026-04-24 14:47 | 41.01092 | 6.35541 | 38420 ft | 435 kts | 47° |
| 2026-04-24 14:48 | 41.05157 | 6.41399 | 38420 ft | 433 kts | 47° |
| 2026-04-24 14:48 | 41.09221 | 6.47267 | 38420 ft | 431 kts | 47° |
| 2026-04-24 14:49 | 41.13251 | 6.53094 | 38420 ft | 430 kts | 47° |
| 2026-04-24 14:49 | 41.17281 | 6.58935 | 38420 ft | 428 kts | 47° |
| 2026-04-24 14:50 | 41.21273 | 6.64734 | 38420 ft | 427 kts | 47° |
| 2026-04-24 14:50 | 41.25277 | 6.70559 | 38420 ft | 427 kts | 47° |
| 2026-04-24 14:51 | 41.29290 | 6.76406 | 38420 ft | 426 kts | 47° |
| 2026-04-24 14:51 | 41.33257 | 6.82200 | 38420 ft | 426 kts | 47° |
| 2026-04-24 14:52 | 41.37227 | 6.88010 | 38420 ft | 424 kts | 47° |
| 2026-04-24 14:52 | 41.41175 | 6.93806 | 38420 ft | 424 kts | 47° |
| 2026-04-24 14:53 | 41.45123 | 6.99609 | 38420 ft | 424 kts | 47° |
| 2026-04-24 14:53 | 41.49070 | 7.05425 | 38420 ft | 423 kts | 47° |
| 2026-04-24 14:54 | 41.52990 | 7.11212 | 38420 ft | 423 kts | 47° |
| 2026-04-24 14:54 | 41.56943 | 7.17058 | 38420 ft | 423 kts | 47° |
| 2026-04-24 14:55 | 41.60083 | 7.22023 | 38420 ft | 423 kts | 52° |
| 2026-04-24 14:55 | 41.63874 | 7.29664 | 38420 ft | 424 kts | 60° |
| 2026-04-24 14:56 | 41.66713 | 7.36557 | 38420 ft | 424 kts | 60° |
| 2026-04-24 14:56 | 41.69519 | 7.43446 | 38420 ft | 423 kts | 60° |
| 2026-04-24 14:57 | 41.72339 | 7.50368 | 38420 ft | 423 kts | 60° |
| 2026-04-24 14:57 | 41.75143 | 7.57260 | 38335 ft | 425 kts | 60° |
| 2026-04-24 14:57 | 41.76549 | 7.60722 | 38054 ft | 424 kts | 60° |
| 2026-04-24 14:58 | 41.77943 | 7.64156 | 37688 ft | 420 kts | 60° |
| 2026-04-24 14:58 | 41.79338 | 7.67592 | 37181 ft | 419 kts | 61° |
| 2026-04-24 14:58 | 41.80729 | 7.71021 | 36601 ft | 419 kts | 61° |
| 2026-04-24 14:58 | 41.82109 | 7.74431 | 35961 ft | 421 kts | 61° |
| 2026-04-24 14:59 | 41.83498 | 7.77864 | 35319 ft | 422 kts | 61° |
| 2026-04-24 14:59 | 41.84884 | 7.81294 | 34679 ft | 423 kts | 61° |
| 2026-04-24 14:59 | 41.86284 | 7.84767 | 34025 ft | 425 kts | 61° |
| 2026-04-24 14:59 | 41.87688 | 7.88250 | 33365 ft | 426 kts | 61° |
| 2026-04-24 15:00 | 41.89084 | 7.91719 | 32700 ft | 427 kts | 61° |
| 2026-04-24 15:00 | 41.90501 | 7.95245 | 32013 ft | 428 kts | 61° |
| 2026-04-24 15:00 | 41.91895 | 7.98718 | 31329 ft | 429 kts | 61° |
| 2026-04-24 15:00 | 41.93298 | 8.02219 | 30631 ft | 430 kts | 61° |
| 2026-04-24 15:01 | 41.94709 | 8.05744 | 30095 ft | 426 kts | 61° |
| 2026-04-24 15:01 | 41.96088 | 8.09192 | 29633 ft | 421 kts | 61° |
| 2026-04-24 15:01 | 41.97463 | 8.12637 | 29162 ft | 415 kts | 61° |
| 2026-04-24 15:01 | 41.98817 | 8.16032 | 28691 ft | 411 kts | 61° |
| 2026-04-24 15:02 | 42.00150 | 8.19376 | 28226 ft | 406 kts | 61° |
| 2026-04-24 15:02 | 42.01469 | 8.22689 | 27742 ft | 402 kts | 61° |
| 2026-04-24 15:02 | 42.02784 | 8.25997 | 27236 ft | 399 kts | 61° |
| 2026-04-24 15:02 | 42.04090 | 8.29287 | 26735 ft | 396 kts | 61° |
| 2026-04-24 15:03 | 42.05368 | 8.32511 | 26248 ft | 393 kts | 61° |
| 2026-04-24 15:03 | 42.06648 | 8.35742 | 25759 ft | 390 kts | 61° |
| 2026-04-24 15:03 | 42.07902 | 8.38912 | 25280 ft | 387 kts | 61° |
| 2026-04-24 15:03 | 42.09166 | 8.42111 | 24799 ft | 384 kts | 61° |
| 2026-04-24 15:04 | 42.10408 | 8.45255 | 24330 ft | 381 kts | 61° |
| 2026-04-24 15:04 | 42.11648 | 8.48399 | 23861 ft | 378 kts | 61° |
| 2026-04-24 15:04 | 42.12879 | 8.51526 | 23394 ft | 376 kts | 61° |
| 2026-04-24 15:04 | 42.14085 | 8.54592 | 22934 ft | 373 kts | 61° |
| 2026-04-24 15:05 | 42.15290 | 8.57658 | 22439 ft | 369 kts | 61° |
| 2026-04-24 15:05 | 42.16481 | 8.60690 | 21953 ft | 367 kts | 61° |
| 2026-04-24 15:05 | 42.17671 | 8.63726 | 21493 ft | 365 kts | 61° |
| 2026-04-24 15:05 | 42.18848 | 8.66733 | 21024 ft | 362 kts | 62° |
| 2026-04-24 15:06 | 42.20005 | 8.69693 | 20559 ft | 359 kts | 62° |
| 2026-04-24 15:06 | 42.21170 | 8.72679 | 20033 ft | 356 kts | 62° |
| 2026-04-24 15:06 | 42.22310 | 8.75590 | 19552 ft | 354 kts | 62° |
| 2026-04-24 15:06 | 42.23472 | 8.78522 | 19085 ft | 350 kts | 58° |
| 2026-04-24 15:07 | 42.25025 | 8.80984 | 18551 ft | 348 kts | 37° |
| 2026-04-24 15:07 | 42.27164 | 8.82497 | 18075 ft | 345 kts | 17° |
| 2026-04-24 15:07 | 42.29528 | 8.82916 | 17611 ft | 342 kts | 1° |
| 2026-04-24 15:07 | 42.31906 | 8.82898 | 17144 ft | 340 kts | 0° |
| 2026-04-24 15:08 | 42.34255 | 8.82863 | 16682 ft | 338 kts | 0° |
| 2026-04-24 15:08 | 42.36613 | 8.82838 | 16223 ft | 335 kts | 0° |
| 2026-04-24 15:08 | 42.38922 | 8.82828 | 15751 ft | 333 kts | 0° |
| 2026-04-24 15:08 | 42.41216 | 8.82823 | 15287 ft | 329 kts | 1° |
| 2026-04-24 15:09 | 42.43525 | 8.82833 | 14768 ft | 327 kts | 2° |
| 2026-04-24 15:09 | 42.45762 | 8.83183 | 14269 ft | 324 kts | 12° |
| 2026-04-24 15:09 | 42.47915 | 8.84043 | 13775 ft | 323 kts | 21° |
| 2026-04-24 15:09 | 42.49989 | 8.85222 | 13329 ft | 320 kts | 24° |
| 2026-04-24 15:10 | 42.52009 | 8.86435 | 12880 ft | 317 kts | 24° |
| 2026-04-24 15:10 | 42.54010 | 8.87637 | 12412 ft | 316 kts | 24° |
| 2026-04-24 15:10 | 42.56034 | 8.88845 | 11967 ft | 314 kts | 24° |
| 2026-04-24 15:10 | 42.58022 | 8.90023 | 11536 ft | 311 kts | 24° |
| 2026-04-24 15:11 | 42.59987 | 8.91186 | 11082 ft | 309 kts | 24° |
| 2026-04-24 15:11 | 42.61962 | 8.92353 | 10642 ft | 307 kts | 24° |
| 2026-04-24 15:11 | 42.63916 | 8.93509 | 10208 ft | 305 kts | 24° |
| 2026-04-24 15:11 | 42.65852 | 8.94655 | 9851 ft | 300 kts | 24° |
| 2026-04-24 15:12 | 42.67723 | 8.95763 | 9660 ft | 289 kts | 24° |
| 2026-04-24 15:12 | 42.71308 | 8.97845 | 9250 ft | 273 kts | 19° |
| 2026-04-24 15:12 | 42.73135 | 8.98429 | 8891 ft | 271 kts | 8° |
| 2026-04-24 15:13 | 42.75017 | 8.98556 | 8490 ft | 269 kts | 1° |
| 2026-04-24 15:13 | 42.76878 | 8.98545 | 8036 ft | 269 kts | 0° |
| 2026-04-24 15:13 | 42.78755 | 8.98517 | 7659 ft | 267 kts | 0° |
| 2026-04-24 15:13 | 42.80590 | 8.98496 | 7293 ft | 265 kts | 1° |
| 2026-04-24 15:14 | 42.82428 | 8.98484 | 6917 ft | 264 kts | 1° |
| 2026-04-24 15:14 | 42.84269 | 8.98476 | 6549 ft | 262 kts | 1° |
| 2026-04-24 15:14 | 42.86073 | 8.98413 | 6157 ft | 260 kts | 353° |
| 2026-04-24 15:14 | 42.87727 | 8.97502 | 5739 ft | 259 kts | 323° |
| 2026-04-24 15:15 | 42.88863 | 8.95682 | 5529 ft | 251 kts | 298° |
| 2026-04-24 15:15 | 42.89309 | 8.93434 | 5317 ft | 244 kts | 274° |
| 2026-04-24 15:15 | 42.89283 | 8.91156 | 5151 ft | 236 kts | 269° |
| 2026-04-24 15:15 | 42.89211 | 8.88988 | 4983 ft | 228 kts | 269° |
| 2026-04-24 15:16 | 42.89144 | 8.86862 | 4791 ft | 223 kts | 270° |
| 2026-04-24 15:16 | 42.89090 | 8.84768 | 4527 ft | 220 kts | 270° |
| 2026-04-24 15:16 | 42.88953 | 8.82688 | 4207 ft | 222 kts | 255° |
| 2026-04-24 15:16 | 42.88228 | 8.80820 | 3918 ft | 223 kts | 227° |
| 2026-04-24 15:17 | 42.86961 | 8.79667 | 3642 ft | 222 kts | 200° |
| 2026-04-24 15:17 | 42.85452 | 8.79196 | 3462 ft | 224 kts | 185° |
| 2026-04-24 15:17 | 42.83928 | 8.79106 | 3377 ft | 217 kts | 179° |
| 2026-04-24 15:17 | 42.82440 | 8.79125 | 3287 ft | 207 kts | 178° |
| 2026-04-24 15:18 | 42.81029 | 8.79156 | 3276 ft | 200 kts | 178° |
| 2026-04-24 15:18 | 42.79619 | 8.79177 | 3286 ft | 203 kts | 178° |
| 2026-04-24 15:18 | 42.78193 | 8.79194 | 3287 ft | 204 kts | 178° |
| 2026-04-24 15:18 | 42.76779 | 8.79205 | 3284 ft | 203 kts | 179° |
| 2026-04-24 15:19 | 42.75414 | 8.79207 | 3351 ft | 188 kts | 179° |
| 2026-04-24 15:19 | 42.74124 | 8.79205 | 3305 ft | 178 kts | 179° |
| 2026-04-24 15:19 | 42.72924 | 8.79202 | 3290 ft | 167 kts | 178° |
| 2026-04-24 15:19 | 42.71810 | 8.79215 | 3282 ft | 156 kts | 177° |
| 2026-04-24 15:20 | 42.70762 | 8.79234 | 3253 ft | 144 kts | 178° |
| 2026-04-24 15:20 | 42.69751 | 8.79238 | 3162 ft | 148 kts | 178° |
| 2026-04-24 15:20 | 42.68712 | 8.79244 | 2966 ft | 149 kts | 178° |
| 2026-04-24 15:20 | 42.67665 | 8.79251 | 2760 ft | 149 kts | 178° |
| 2026-04-24 15:21 | 42.66634 | 8.79256 | 2557 ft | 148 kts | 178° |
| 2026-04-24 15:21 | 42.65611 | 8.79260 | 2354 ft | 146 kts | 179° |
| 2026-04-24 15:21 | 42.64618 | 8.79256 | 2148 ft | 143 kts | 179° |
| 2026-04-24 15:21 | 42.63618 | 8.79253 | 1950 ft | 141 kts | 178° |
| 2026-04-24 15:22 | 42.62647 | 8.79260 | 1735 ft | 139 kts | 179° |
| 2026-04-24 15:22 | 42.61694 | 8.79245 | 1527 ft | 137 kts | 180° |
| 2026-04-24 15:22 | 42.60740 | 8.79230 | 1343 ft | 134 kts | 178° |
| 2026-04-24 15:23 | 42.58826 | 8.79253 | 1084 ft | 139 kts | 177° |
| 2026-04-24 15:23 | 42.56879 | 8.79288 | 712 ft | 140 kts | 180° |
| 2026-04-24 15:23 | 42.55907 | 8.79300 | 489 ft | 141 kts | 178° |
| 2026-04-24 15:24 | 42.53279 | 8.79302 | 108 ft | 61 kts | 178° |
| 2026-04-24 15:25 | 42.52834 | 8.79294 | 139 ft | 21 kts | 185° |
| 2026-04-24 15:25 | 42.52572 | 8.79300 | 158 ft | 12 kts | 180° |
| 2026-04-24 15:26 | 42.52442 | 8.79148 | 167 ft | 4 kts | 292° |
| 2026-04-24 15:27 | 42.52468 | 8.79080 | 165 ft | 0 kts | 300° |